createdAt,value
2018-10-18T00:01:38.145Z,42.67
2018-10-18T00:04:06.643Z,40.30
2018-10-18T00:06:35.145Z,44.40
2018-10-18T00:09:04.768Z,40.80
2018-10-18T00:11:33.377Z,36.60
2018-10-18T00:14:01.899Z,40.17
2018-10-18T00:16:30.481Z,30.40
2018-10-18T00:18:58.995Z,46.70
2018-10-18T00:21:27.480Z,44.23
2018-10-18T00:23:56.093Z,41.33
2018-10-18T00:26:24.673Z,51.23
2018-10-18T00:28:53.241Z,40.40
2018-10-18T00:31:21.776Z,47.83
2018-10-18T00:33:50.321Z,50.43
2018-10-18T00:36:18.865Z,47.27
2018-10-18T00:38:47.280Z,47.33
2018-10-18T00:41:15.806Z,43.93
2018-10-18T00:43:44.268Z,51.23
2018-10-18T00:46:12.730Z,38.17
2018-10-18T00:48:41.193Z,56.70
2018-10-18T00:51:09.602Z,40.30
2018-10-18T00:53:38.028Z,43.27
2018-10-18T00:56:06.513Z,54.13
2018-10-18T00:58:34.994Z,48.33
2018-10-18T01:01:03.566Z,54.00
2018-10-18T01:03:32.024Z,54.93
2018-10-18T01:06:00.619Z,54.93
2018-10-18T01:08:29.126Z,56.80
2018-10-18T01:10:57.594Z,50.17
2018-10-18T01:13:26.065Z,41.47
2018-10-18T01:15:54.565Z,46.60
2018-10-18T01:18:23.019Z,44.70
2018-10-18T01:20:51.478Z,46.47
2018-10-18T01:23:19.998Z,45.97
2018-10-18T01:28:13.597Z,50.40
2018-10-18T01:30:42.017Z,52.27
2018-10-18T01:33:10.389Z,46.53
2018-10-18T01:35:38.756Z,47.20
2018-10-18T01:38:07.202Z,50.10
2018-10-18T01:40:35.657Z,39.90
2018-10-18T01:43:04.112Z,44.83
2018-10-18T01:45:32.488Z,39.40
2018-10-18T01:48:00.891Z,45.63
2018-10-18T01:50:29.244Z,45.30
2018-10-18T01:52:57.583Z,45.63
2018-10-18T01:55:25.962Z,45.50
2018-10-18T01:57:54.358Z,46.43
2018-10-18T02:00:22.803Z,50.27
2018-10-18T02:02:51.176Z,44.03
2018-10-18T02:05:19.539Z,47.40
2018-10-18T02:07:47.936Z,46.70
2018-10-18T02:10:16.291Z,43.90
2018-10-18T02:12:44.674Z,45.97
2018-10-18T02:15:13.028Z,40.87
2018-10-18T02:17:41.548Z,43.23
2018-10-18T02:20:10.960Z,44.57
2018-10-18T02:22:39.736Z,49.70
2018-10-18T02:25:08.200Z,45.87
2018-10-18T02:27:36.597Z,45.90
2018-10-18T02:30:05.675Z,57.50
2018-10-18T02:32:34.003Z,55.13
2018-10-18T02:35:02.396Z,46.03
2018-10-18T02:37:30.786Z,53.17
2018-10-18T02:39:59.183Z,45.23
2018-10-18T02:42:27.592Z,47.27
2018-10-18T02:44:55.961Z,50.27
2018-10-18T02:47:24.341Z,55.47
2018-10-18T02:49:52.697Z,49.50
2018-10-18T02:52:21.069Z,49.20
2018-10-18T02:54:49.523Z,47.73
2018-10-18T02:57:17.876Z,66.77
2018-10-18T02:59:46.216Z,59.60
2018-10-18T03:02:14.576Z,47.90
2018-10-18T03:04:42.900Z,48.27
2018-10-18T03:07:11.237Z,43.63
2018-10-18T03:09:39.617Z,42.13
2018-10-18T03:12:07.986Z,47.40
2018-10-18T03:14:36.356Z,41.80
2018-10-18T03:17:04.892Z,46.03
2018-10-18T03:19:33.236Z,60.83
2018-10-18T03:22:01.612Z,75.17
2018-10-18T03:24:30.010Z,171.43
2018-10-18T03:26:58.447Z,98.40
2018-10-18T03:29:26.879Z,223.00
2018-10-18T03:31:55.413Z,416.97
2018-10-18T03:34:23.821Z,439.13
2018-10-18T03:36:52.272Z,432.47
2018-10-18T03:39:20.689Z,416.27
2018-10-18T03:41:49.107Z,441.43
2018-10-18T03:44:24.108Z,461.90
2018-10-18T03:46:52.529Z,472.50
2018-10-18T03:49:20.950Z,453.07
2018-10-18T03:51:49.316Z,463.40
2018-10-18T03:54:17.729Z,469.97
2018-10-18T03:56:46.281Z,472.30
2018-10-18T03:59:14.640Z,444.97
2018-10-18T04:01:43.092Z,518.37
2018-10-18T04:04:11.492Z,432.47
2018-10-18T04:06:39.889Z,412.90
2018-10-18T04:09:09.722Z,422.67
2018-10-18T04:11:38.296Z,453.73
2018-10-18T04:14:07.076Z,402.50
2018-10-18T04:16:35.509Z,372.30
2018-10-18T04:19:03.924Z,381.23
2018-10-18T04:21:32.305Z,357.10
2018-10-18T04:24:00.781Z,318.40
2018-10-18T04:26:29.134Z,340.43
2018-10-18T04:28:57.544Z,297.50
2018-10-18T04:31:26.161Z,317.40
2018-10-18T04:33:54.556Z,298.73
2018-10-18T04:36:22.980Z,274.03
2018-10-18T04:38:51.384Z,283.40
2018-10-18T04:41:19.812Z,271.90
2018-10-18T04:43:48.204Z,246.20
2018-10-18T04:46:16.612Z,240.87
2018-10-18T04:48:45.049Z,237.30
2018-10-18T04:51:13.324Z,235.93
2018-10-18T04:53:41.754Z,223.13
2018-10-18T04:56:10.240Z,249.17
2018-10-18T04:58:38.700Z,248.97
2018-10-18T05:01:07.236Z,258.97
2018-10-18T05:03:35.628Z,245.17
2018-10-18T05:06:05.177Z,224.90
2018-10-18T05:08:33.571Z,264.17
2018-10-18T05:11:02.265Z,275.60
2018-10-18T05:13:30.636Z,238.67
2018-10-18T05:15:59.014Z,241.87
2018-10-18T05:21:11.499Z,223.93
2018-10-18T05:23:40.132Z,231.57
2018-10-18T05:26:14.942Z,210.90
2018-10-18T05:28:43.407Z,227.07
2018-10-18T05:31:11.973Z,222.27
2018-10-18T05:33:40.394Z,227.73
2018-10-18T05:36:08.912Z,243.57
2018-10-18T05:38:37.408Z,253.83
2018-10-18T05:41:05.936Z,239.83
2018-10-18T05:43:34.455Z,224.60
2018-10-18T05:46:03.036Z,217.90
2018-10-18T05:48:31.517Z,232.00
2018-10-18T05:51:00.033Z,215.13
2018-10-18T05:53:28.690Z,247.70
2018-10-18T05:55:57.179Z,230.77
2018-10-18T05:58:25.753Z,223.37
2018-10-18T06:00:55.289Z,235.13
2018-10-18T06:03:23.835Z,211.50
2018-10-18T06:05:52.387Z,233.50
2018-10-18T06:08:21.031Z,193.97
2018-10-18T06:11:01.674Z,200.10
2018-10-18T06:13:31.127Z,190.87
2018-10-18T06:16:00.601Z,202.87
2018-10-18T06:18:29.129Z,199.37
2018-10-18T06:20:57.760Z,198.97
2018-10-18T06:23:26.281Z,197.37
2018-10-18T06:25:54.705Z,203.50
2018-10-18T06:28:23.149Z,174.60
2018-10-18T06:30:51.576Z,187.87
2018-10-18T06:33:20.037Z,182.37
2018-10-18T06:35:48.441Z,176.80
2018-10-18T06:38:16.868Z,189.30
2018-10-18T06:40:45.344Z,181.57
2018-10-18T06:43:14.844Z,170.73
2018-10-18T06:45:43.253Z,166.93
2018-10-18T06:48:11.709Z,167.50
2018-10-18T06:50:40.129Z,147.53
2018-10-18T06:53:08.636Z,158.23
2018-10-18T06:55:37.169Z,147.40
2018-10-18T06:58:05.744Z,154.97
2018-10-18T07:00:34.224Z,161.23
2018-10-18T07:03:02.666Z,159.83
2018-10-18T07:05:31.033Z,143.40
2018-10-18T07:07:59.552Z,152.43
2018-10-18T07:10:28.092Z,149.67
2018-10-18T07:12:56.664Z,162.67
2018-10-18T07:15:25.156Z,147.00
2018-10-18T07:17:53.757Z,132.03
2018-10-18T07:20:22.288Z,128.53
2018-10-18T07:22:57.412Z,129.00
2018-10-18T07:25:26.015Z,129.93
2018-10-18T07:27:54.346Z,128.10
2018-10-18T07:30:22.733Z,123.37
2018-10-18T07:32:51.202Z,116.93
2018-10-18T07:35:20.614Z,112.97
2018-10-18T07:37:48.998Z,104.17
2018-10-18T07:40:17.412Z,100.10
2018-10-18T07:42:45.797Z,98.93
2018-10-18T07:45:14.749Z,96.87
2018-10-18T07:47:43.805Z,84.97
2018-10-18T07:50:12.676Z,87.00
2018-10-18T07:52:41.112Z,97.67
2018-10-18T07:55:10.409Z,80.23
2018-10-18T07:57:38.890Z,83.93
2018-10-18T08:00:10.516Z,88.93
2018-10-18T08:02:38.955Z,82.47
2018-10-18T08:05:07.752Z,81.07
2018-10-18T08:07:36.220Z,76.43
2018-10-18T08:10:05.817Z,73.20
2018-10-18T08:12:34.220Z,81.83
2018-10-18T08:15:02.697Z,76.80
2018-10-18T08:17:31.125Z,71.93
2018-10-18T08:19:59.608Z,74.67
2018-10-18T08:22:28.108Z,63.20
2018-10-18T08:24:56.508Z,69.43
2018-10-18T08:27:25.065Z,70.83
2018-10-18T08:29:53.633Z,68.43
2018-10-18T08:32:23.164Z,63.37
2018-10-18T08:34:51.692Z,61.13
2018-10-18T08:37:20.225Z,54.10
2018-10-18T08:39:48.741Z,52.10
2018-10-18T08:42:17.227Z,52.43
2018-10-18T08:44:45.732Z,49.60
2018-10-18T08:47:14.288Z,50.10
2018-10-18T08:49:42.749Z,47.77
2018-10-18T08:52:11.256Z,51.63
2018-10-18T08:54:39.828Z,46.50
2018-10-18T08:57:08.333Z,43.07
2018-10-18T08:59:36.860Z,43.90
2018-10-18T09:02:05.547Z,40.20
2018-10-18T09:04:34.078Z,39.77
2018-10-18T09:07:02.607Z,38.50
2018-10-18T09:09:31.260Z,43.93
2018-10-18T09:11:59.807Z,36.20
2018-10-18T09:14:28.634Z,36.67
2018-10-18T09:16:58.130Z,41.67
2018-10-18T09:19:26.606Z,35.23
2018-10-18T09:21:56.072Z,37.63
2018-10-18T09:24:24.508Z,35.80
2018-10-18T09:26:52.981Z,43.63
2018-10-18T09:29:21.537Z,50.63
2018-10-18T09:31:50.014Z,46.20
2018-10-18T09:34:18.573Z,56.30
2018-10-18T09:36:47.070Z,49.20
2018-10-18T09:39:15.553Z,48.20
2018-10-18T09:41:44.088Z,48.93
2018-10-18T09:44:12.614Z,52.73
2018-10-18T09:46:41.094Z,50.20
2018-10-18T09:49:09.608Z,47.47
2018-10-18T09:51:38.004Z,57.67
2018-10-18T09:54:06.619Z,56.63
2018-10-18T09:56:35.148Z,56.83
2018-10-18T09:59:04.767Z,57.77
2018-10-18T10:01:38.564Z,55.00
2018-10-18T10:04:07.010Z,58.23
2018-10-18T10:06:35.419Z,61.93
2018-10-18T10:09:04.105Z,61.13
2018-10-18T10:11:32.569Z,70.97
2018-10-18T10:14:01.069Z,68.20
2018-10-18T10:16:29.518Z,71.90
2018-10-18T10:18:58.095Z,85.70
2018-10-18T10:21:26.564Z,83.57
2018-10-18T10:23:55.092Z,81.03
2018-10-18T10:26:23.679Z,85.33
2018-10-18T10:28:52.141Z,80.13
2018-10-18T10:31:20.621Z,79.33
2018-10-18T10:33:48.996Z,87.20
2018-10-18T10:36:17.468Z,81.63
2018-10-18T10:38:45.950Z,84.93
2018-10-18T10:41:14.448Z,89.10
2018-10-18T10:43:42.779Z,89.77
2018-10-18T10:46:11.297Z,94.57
2018-10-18T10:48:39.824Z,79.33
2018-10-18T10:51:09.302Z,79.47
2018-10-18T10:53:38.355Z,66.83
2018-10-18T10:56:08.161Z,82.20
2018-10-18T10:58:37.784Z,74.70
2018-10-18T11:01:15.689Z,67.77
2018-10-18T11:03:45.652Z,67.37
2018-10-18T11:06:15.439Z,68.73
2018-10-18T11:08:44.929Z,65.60
2018-10-18T11:11:15.281Z,68.43
2018-10-18T11:13:44.734Z,67.73
2018-10-18T11:16:14.046Z,60.40
2018-10-18T11:18:43.833Z,61.00
2018-10-18T11:21:17.650Z,66.50
2018-10-18T11:23:48.088Z,75.27
2018-10-18T11:28:54.737Z,64.97
2018-10-18T11:31:24.706Z,71.27
2018-10-18T11:33:58.874Z,63.50
2018-10-18T11:36:28.217Z,60.40
2018-10-18T11:38:57.572Z,59.33
2018-10-18T11:41:27.028Z,63.77
2018-10-18T11:43:56.438Z,59.37
2018-10-18T11:46:26.447Z,54.97
2018-10-18T11:48:55.974Z,59.87
2018-10-18T11:51:25.526Z,59.97
2018-10-18T11:53:55.062Z,57.20
2018-10-18T11:56:24.507Z,53.27
2018-10-18T11:58:53.945Z,58.10
2018-10-18T12:01:23.535Z,53.00
2018-10-18T12:03:59.329Z,56.20
2018-10-18T12:06:28.832Z,52.67
2018-10-18T12:08:58.169Z,46.90
2018-10-18T12:11:26.791Z,52.23
2018-10-18T12:13:55.251Z,43.63
2018-10-18T12:16:23.719Z,51.47
2018-10-18T12:18:52.197Z,45.93
2018-10-18T12:21:20.591Z,37.00
2018-10-18T12:23:49.027Z,39.83
2018-10-18T12:26:17.702Z,39.30
2018-10-18T12:28:46.174Z,37.47
2018-10-18T12:31:14.958Z,44.60
2018-10-18T12:33:43.445Z,40.43
2018-10-18T12:36:11.844Z,33.93
2018-10-18T12:38:40.335Z,33.97
2018-10-18T12:41:08.874Z,30.97
2018-10-18T12:43:37.318Z,41.60
2018-10-18T12:46:06.060Z,36.87
2018-10-18T12:48:34.666Z,31.17
2018-10-18T12:51:03.091Z,34.93
2018-10-18T12:53:31.762Z,33.70
2018-10-18T12:56:00.283Z,31.93
2018-10-18T12:58:28.751Z,34.07
2018-10-18T13:00:57.232Z,27.97
2018-10-18T13:03:25.632Z,33.83
2018-10-18T13:05:54.080Z,30.87
2018-10-18T13:08:22.533Z,39.93
2018-10-18T13:10:50.959Z,49.73
2018-10-18T13:13:19.353Z,30.70
2018-10-18T13:15:47.761Z,37.53
2018-10-18T13:18:16.230Z,32.90
2018-10-18T13:20:44.723Z,28.77
2018-10-18T13:23:13.156Z,37.80
2018-10-18T13:25:41.444Z,32.70
2018-10-18T13:28:09.783Z,30.10
2018-10-18T13:30:38.143Z,33.73
2018-10-18T13:33:06.627Z,35.20
2018-10-18T13:35:35.013Z,33.17
2018-10-18T13:38:03.666Z,33.23
2018-10-18T13:40:32.214Z,32.37
2018-10-18T13:43:00.730Z,37.40
2018-10-18T13:45:29.191Z,37.33
2018-10-18T13:47:57.697Z,35.70
2018-10-18T13:50:26.173Z,32.77
2018-10-18T13:52:54.726Z,35.80
2018-10-18T13:55:25.200Z,33.07
2018-10-18T13:57:53.645Z,30.13
2018-10-18T14:00:26.665Z,28.90
2018-10-18T14:02:55.564Z,29.27
2018-10-18T14:05:24.399Z,32.53
2018-10-18T14:07:53.751Z,25.03
2018-10-18T14:10:22.223Z,23.27
2018-10-18T14:12:51.241Z,21.23
2018-10-18T14:15:19.666Z,18.87
2018-10-18T14:17:48.178Z,19.33
2018-10-18T14:20:16.619Z,22.43
2018-10-18T14:22:44.965Z,18.00
2018-10-18T14:25:13.492Z,19.57
2018-10-18T14:27:50.012Z,19.00
2018-10-18T14:30:18.714Z,19.43
2018-10-18T14:32:47.205Z,16.00
2018-10-18T14:35:36.763Z,17.10
2018-10-18T14:38:05.240Z,18.87
2018-10-18T14:40:33.617Z,16.00
2018-10-18T14:43:02.147Z,14.00
2018-10-18T14:45:30.521Z,13.30
2018-10-18T14:47:58.962Z,16.20
2018-10-18T14:50:27.418Z,19.13
2018-10-18T14:52:55.716Z,17.10
2018-10-18T14:55:24.123Z,16.17
2018-10-18T14:57:52.573Z,17.87
2018-10-18T15:00:20.995Z,19.83
2018-10-18T15:02:49.381Z,17.37
2018-10-18T15:05:17.921Z,19.50
2018-10-18T15:07:47.207Z,14.70
2018-10-18T15:10:15.577Z,17.83
2018-10-18T15:12:44.126Z,18.27
2018-10-18T15:15:13.721Z,14.70
2018-10-18T15:17:42.480Z,17.50
2018-10-18T15:20:11.812Z,23.70
2018-10-18T15:22:41.039Z,15.50
2018-10-18T15:25:10.388Z,18.70
2018-10-18T15:27:39.117Z,21.80
2018-10-18T15:30:08.387Z,18.60
2018-10-18T15:32:37.378Z,17.63
2018-10-18T15:35:06.421Z,17.67
2018-10-18T15:37:34.809Z,19.70
2018-10-18T15:40:03.388Z,18.40
2018-10-18T15:42:31.904Z,14.83
2018-10-18T15:45:00.452Z,14.20
2018-10-18T15:47:28.861Z,14.87
2018-10-18T15:49:57.419Z,14.73
2018-10-18T15:52:25.896Z,14.90
2018-10-18T15:54:54.314Z,17.00
2018-10-18T15:57:22.775Z,15.80
2018-10-18T15:59:51.171Z,18.00
2018-10-18T16:02:19.623Z,17.67
2018-10-18T16:04:48.076Z,16.90
2018-10-18T16:07:16.511Z,18.50
2018-10-18T16:09:44.982Z,17.30
2018-10-18T16:12:13.503Z,15.53
2018-10-18T16:14:41.983Z,20.40
2018-10-18T16:17:12.463Z,20.63
2018-10-18T16:19:40.927Z,17.53
2018-10-18T16:22:09.483Z,19.00
2018-10-18T16:24:38.007Z,16.23
2018-10-18T16:27:06.503Z,18.17
2018-10-18T16:29:35.027Z,17.87
2018-10-18T16:32:03.612Z,14.37
2018-10-18T16:34:32.124Z,20.90
2018-10-18T16:37:00.532Z,16.77
2018-10-18T16:39:28.975Z,20.13
2018-10-18T16:41:57.390Z,17.53
2018-10-18T16:44:25.836Z,19.50
2018-10-18T16:46:54.302Z,29.20
2018-10-18T16:49:22.807Z,23.30
2018-10-18T16:51:51.702Z,21.03
2018-10-18T16:54:20.171Z,19.67
2018-10-18T16:56:48.600Z,23.67
2018-10-18T16:59:17.114Z,21.37
2018-10-18T17:01:45.547Z,29.43
2018-10-18T17:04:14.052Z,19.27
2018-10-18T17:06:42.375Z,20.30
2018-10-18T17:09:11.435Z,23.10
2018-10-18T17:11:39.936Z,22.23
2018-10-18T17:14:08.575Z,27.80
2018-10-18T17:16:36.934Z,24.23
2018-10-18T17:19:05.861Z,23.10
2018-10-18T17:21:34.327Z,21.10
2018-10-18T17:24:02.882Z,18.07
2018-10-18T17:26:31.455Z,20.20
2018-10-18T17:28:59.900Z,28.07
2018-10-18T17:31:28.483Z,26.83
2018-10-18T17:33:57.114Z,25.17
2018-10-18T17:36:25.921Z,22.80
2018-10-18T17:38:54.410Z,20.53
2018-10-18T17:41:22.856Z,18.17
2018-10-18T17:43:51.283Z,22.97
2018-10-18T17:46:19.810Z,20.87
2018-10-18T17:48:48.075Z,25.07
2018-10-18T17:51:16.431Z,25.27
2018-10-18T17:53:44.967Z,27.97
2018-10-18T17:56:13.493Z,25.97
2018-10-18T17:58:41.884Z,23.37
2018-10-18T18:01:10.363Z,22.33
2018-10-18T18:03:38.725Z,21.33
2018-10-18T18:06:07.287Z,22.80
2018-10-18T18:08:35.551Z,20.40
2018-10-18T18:11:03.995Z,22.43
2018-10-18T18:13:32.517Z,31.80
2018-10-18T18:16:00.931Z,24.80
2018-10-18T18:18:29.269Z,30.27
2018-10-18T18:20:57.671Z,22.90
2018-10-18T18:23:26.106Z,27.40
2018-10-18T18:25:54.606Z,26.27
2018-10-18T18:28:22.980Z,25.03
2018-10-18T18:30:51.310Z,24.73
2018-10-18T18:33:19.791Z,31.07
2018-10-18T18:35:48.143Z,26.20
2018-10-18T18:38:16.495Z,27.00
2018-10-18T18:40:44.808Z,26.20
2018-10-18T18:43:13.090Z,26.17
2018-10-18T18:45:42.651Z,28.10
2018-10-18T18:48:10.956Z,24.00
2018-10-18T18:50:39.238Z,31.70
2018-10-18T18:53:07.802Z,28.50
2018-10-18T18:55:40.693Z,26.90
2018-10-18T18:58:09.019Z,27.83
2018-10-18T19:00:37.364Z,25.63
2018-10-18T19:03:06.267Z,30.33
2018-10-18T19:05:34.541Z,27.07
2018-10-18T19:08:02.880Z,30.27
2018-10-18T19:10:31.182Z,28.90
2018-10-18T19:13:00.029Z,36.03
2018-10-18T19:15:28.499Z,33.50
2018-10-18T19:17:56.914Z,27.37
2018-10-18T19:20:25.299Z,32.97
2018-10-18T19:22:53.706Z,29.67
2018-10-18T19:25:22.117Z,30.20
2018-10-18T19:27:50.512Z,30.93
2018-10-18T19:30:18.880Z,36.53
2018-10-18T19:32:47.319Z,31.10
2018-10-18T19:35:15.787Z,37.50
2018-10-18T19:37:44.182Z,33.17
2018-10-18T19:40:12.644Z,31.53
2018-10-18T19:42:41.079Z,35.10
2018-10-18T19:45:09.939Z,34.83
2018-10-18T19:47:38.619Z,32.40
2018-10-18T19:50:07.690Z,35.97
2018-10-18T19:52:36.339Z,34.33
2018-10-18T19:55:04.660Z,34.47
2018-10-18T19:57:33.096Z,35.50
2018-10-18T20:00:01.598Z,33.90
2018-10-18T20:02:30.077Z,35.93
2018-10-18T20:04:58.495Z,36.93
2018-10-18T20:07:26.958Z,34.70
2018-10-18T20:09:55.324Z,44.83
2018-10-18T20:12:23.747Z,41.37
2018-10-18T20:14:52.178Z,40.33
2018-10-18T20:17:20.558Z,33.03
2018-10-18T20:19:48.974Z,35.63
2018-10-18T20:22:17.371Z,40.40
2018-10-18T20:24:45.832Z,36.70
2018-10-18T20:27:14.190Z,39.73
2018-10-18T20:29:42.595Z,39.10
2018-10-18T20:32:11.098Z,42.90
2018-10-18T20:34:39.542Z,36.37
2018-10-18T20:37:07.959Z,38.33
2018-10-18T20:39:36.419Z,33.60
2018-10-18T20:42:05.002Z,35.90
2018-10-18T20:44:33.543Z,32.50
2018-10-18T20:47:02.632Z,34.03
2018-10-18T20:49:31.705Z,31.17
2018-10-18T20:52:03.007Z,32.57
2018-10-18T20:54:32.472Z,20.20
2018-10-18T20:57:04.405Z,19.83
2018-10-18T20:59:32.911Z,17.60
2018-10-18T21:02:01.435Z,17.33
2018-10-18T21:04:30.136Z,12.67
2018-10-18T21:06:58.584Z,14.77
2018-10-18T21:09:27.109Z,13.33
2018-10-18T21:11:56.608Z,8.70
2018-10-18T21:14:24.979Z,10.97
2018-10-18T21:16:53.425Z,10.73
2018-10-18T21:19:21.886Z,10.33
2018-10-18T21:21:50.302Z,13.27
2018-10-18T21:24:18.733Z,13.13
2018-10-18T21:26:47.191Z,11.00
2018-10-18T21:29:15.664Z,9.60
2018-10-18T21:31:44.167Z,9.20
2018-10-18T21:34:12.650Z,10.70
2018-10-18T21:36:41.112Z,9.00
2018-10-18T21:39:09.748Z,11.60
2018-10-18T21:41:38.415Z,8.70
2018-10-18T21:44:06.839Z,9.53
2018-10-18T21:46:35.288Z,9.60
2018-10-18T21:49:03.942Z,11.30
2018-10-18T21:51:32.377Z,12.77
2018-10-18T21:54:00.984Z,11.30
2018-10-18T21:56:29.639Z,15.60
2018-10-18T21:58:58.445Z,13.20
2018-10-18T22:01:26.956Z,12.00
2018-10-18T22:03:55.551Z,11.23
2018-10-18T22:06:24.371Z,11.13
2018-10-18T22:08:53.948Z,12.27
2018-10-18T22:11:22.466Z,13.17
2018-10-18T22:13:51.049Z,16.40
2018-10-18T22:16:19.548Z,19.10
2018-10-18T22:18:47.951Z,18.50
2018-10-18T22:21:16.584Z,23.23
2018-10-18T22:23:44.856Z,21.03
2018-10-18T22:26:13.247Z,25.97
2018-10-18T22:28:41.670Z,28.67
2018-10-18T22:31:10.087Z,27.33
2018-10-18T22:33:38.693Z,30.00
2018-10-18T22:36:07.119Z,29.00
2018-10-18T22:38:35.495Z,29.23
2018-10-18T22:41:03.933Z,31.93
2018-10-18T22:43:32.255Z,30.10
2018-10-18T22:46:00.874Z,43.23
2018-10-18T22:48:30.592Z,25.93
2018-10-18T22:51:00.349Z,31.23
2018-10-18T22:53:30.054Z,30.40
2018-10-18T22:55:58.448Z,26.23
2018-10-18T22:58:26.810Z,29.17
2018-10-18T23:00:55.244Z,28.80
2018-10-18T23:03:23.609Z,31.93
2018-10-18T23:05:51.959Z,27.33
2018-10-18T23:08:20.356Z,27.27
2018-10-18T23:10:48.684Z,28.67
2018-10-18T23:13:17.026Z,32.30
2018-10-18T23:15:45.386Z,30.10
2018-10-18T23:18:13.749Z,31.70
2018-10-18T23:20:42.166Z,30.60
2018-10-18T23:23:11.209Z,30.77
2018-10-18T23:25:39.898Z,32.67
2018-10-18T23:28:08.251Z,35.30
2018-10-18T23:30:36.710Z,36.00
2018-10-18T23:33:05.201Z,29.23
2018-10-18T23:35:33.556Z,31.70
2018-10-18T23:38:01.927Z,31.43
2018-10-18T23:40:30.341Z,31.20
2018-10-18T23:42:58.805Z,33.20
2018-10-18T23:45:27.167Z,30.43
2018-10-18T23:47:55.567Z,35.00
2018-10-18T23:50:23.987Z,34.60
2018-10-18T23:52:52.398Z,34.67
2018-10-18T23:55:20.778Z,34.73
2018-10-18T23:57:49.187Z,38.57
